createdAt,value
2022-09-28T00:01:20.648Z,55.61
2022-09-28T00:03:50.726Z,55.66
2022-09-28T00:06:20.430Z,55.80
2022-09-28T00:08:50.181Z,56.02
2022-09-28T00:11:20.637Z,56.12
2022-09-28T00:13:52.409Z,55.93
2022-09-28T00:16:22.519Z,56.54
2022-09-28T00:18:51.119Z,56.34
2022-09-28T00:21:21.599Z,56.02
2022-09-28T00:24:09.915Z,56.48
2022-09-28T00:26:39.873Z,56.33
2022-09-28T00:29:17.096Z,55.95
2022-09-28T00:31:45.351Z,56.83
2022-09-28T00:34:14.196Z,56.38
2022-09-28T00:36:45.575Z,56.52
2022-09-28T00:39:17.415Z,56.60
2022-09-28T00:41:49.250Z,57.17
2022-09-28T00:44:50.444Z,56.71
2022-09-28T00:47:28.104Z,58.05
2022-09-28T00:50:00.796Z,58.12
2022-09-28T00:52:33.775Z,57.01
2022-09-28T00:55:04.934Z,57.49
2022-09-28T00:57:34.028Z,56.98
2022-09-28T01:00:06.124Z,56.74
2022-09-28T01:02:34.343Z,56.98
2022-09-28T01:05:06.151Z,57.34
2022-09-28T01:07:36.548Z,57.01
2022-09-28T01:10:06.106Z,56.99
2022-09-28T01:12:34.147Z,58.08
2022-09-28T01:15:05.530Z,57.38
2022-09-28T01:17:42.809Z,56.75
2022-09-28T01:20:28.624Z,57.06
2022-09-28T01:23:33.040Z,57.69
2022-09-28T01:26:22.030Z,57.80
2022-09-28T01:28:55.549Z,57.22
2022-09-28T01:31:30.547Z,56.28
2022-09-28T01:34:04.912Z,56.32
2022-09-28T01:36:39.252Z,56.05
2022-09-28T01:39:11.967Z,56.55
2022-09-28T01:41:44.470Z,56.21
2022-09-28T01:44:19.939Z,56.00
2022-09-28T01:46:50.135Z,55.86
2022-09-28T01:49:22.096Z,56.01
2022-09-28T01:51:56.472Z,56.21
2022-09-28T01:54:32.801Z,56.23
2022-09-28T01:57:08.970Z,56.63
2022-09-28T01:59:41.763Z,57.33
2022-09-28T02:02:15.578Z,56.61
2022-09-28T02:04:48.607Z,57.27
2022-09-28T02:07:21.549Z,57.09
2022-09-28T02:09:57.123Z,57.08
2022-09-28T02:12:32.790Z,56.92
2022-09-28T02:15:11.651Z,56.82
2022-09-28T02:17:39.958Z,57.11
2022-09-28T02:20:09.795Z,56.72
2022-09-28T02:22:42.970Z,56.83
2022-09-28T02:25:14.873Z,56.99
2022-09-28T02:27:51.066Z,56.54
2022-09-28T02:30:19.543Z,56.90
2022-09-28T02:32:50.088Z,57.01
2022-09-28T02:35:19.807Z,56.95
2022-09-28T02:37:48.300Z,56.83
2022-09-28T02:40:18.218Z,56.73
2022-09-28T02:42:55.324Z,56.63
2022-09-28T02:45:39.062Z,57.34
2022-09-28T02:48:31.455Z,57.44
2022-09-28T02:51:21.497Z,57.58
2022-09-28T02:54:29.814Z,57.09
2022-09-28T02:57:13.458Z,57.57
2022-09-28T02:59:50.545Z,56.90
2022-09-28T03:02:29.155Z,56.87
2022-09-28T03:05:19.754Z,57.75
2022-09-28T03:07:58.144Z,58.38
2022-09-28T03:10:34.312Z,57.41
2022-09-28T03:13:04.579Z,57.35
2022-09-28T03:15:36.534Z,57.29
2022-09-28T03:18:05.524Z,57.57
2022-09-28T03:20:34.535Z,57.50
2022-09-28T03:23:25.163Z,57.28
2022-09-28T03:25:54.495Z,57.16
2022-09-28T03:28:23.230Z,56.82
2022-09-28T03:30:52.717Z,56.98
2022-09-28T03:33:20.906Z,57.14
2022-09-28T03:35:50.442Z,56.93
2022-09-28T03:38:19.358Z,56.86
2022-09-28T03:40:53.995Z,56.58
2022-09-28T03:43:22.567Z,56.99
2022-09-28T03:45:56.618Z,56.75
2022-09-28T03:48:31.226Z,57.22
2022-09-28T03:51:02.437Z,57.03
2022-09-28T03:53:36.920Z,56.87
2022-09-28T03:56:06.492Z,56.92
2022-09-28T03:58:35.670Z,56.98
2022-09-28T04:01:07.428Z,57.04
2022-09-28T04:03:36.012Z,56.84
2022-09-28T04:06:04.051Z,56.80
2022-09-28T04:08:32.306Z,57.00
2022-09-28T04:11:01.249Z,57.00
2022-09-28T04:13:30.335Z,57.08
2022-09-28T04:16:00.544Z,57.25
2022-09-28T04:18:31.287Z,56.90
2022-09-28T04:21:04.606Z,57.06
2022-09-28T04:23:34.615Z,56.82
2022-09-28T04:26:02.780Z,57.00
2022-09-28T04:28:48.611Z,56.73
2022-09-28T04:31:19.484Z,56.67
2022-09-28T04:33:48.826Z,57.17
2022-09-28T04:36:17.911Z,56.98
2022-09-28T04:38:53.261Z,56.95
2022-09-28T04:41:22.827Z,56.99
2022-09-28T04:43:51.262Z,56.96
2022-09-28T04:46:20.131Z,57.02
2022-09-28T04:48:50.711Z,57.33
2022-09-28T04:51:19.786Z,57.41
2022-09-28T04:53:47.823Z,57.39
2022-09-28T04:56:17.472Z,57.46
2022-09-28T04:58:49.102Z,57.42
2022-09-28T05:01:23.523Z,57.25
2022-09-28T05:03:54.096Z,57.25
2022-09-28T05:06:22.916Z,57.32
2022-09-28T05:08:51.903Z,57.39
2022-09-28T05:11:21.341Z,57.27
2022-09-28T05:13:50.436Z,57.31
2022-09-28T05:16:20.273Z,57.51
2022-09-28T05:18:49.396Z,57.32
2022-09-28T05:21:20.042Z,57.37
2022-09-28T05:23:48.754Z,57.33
2022-09-28T05:26:16.703Z,57.06
2022-09-28T05:28:45.087Z,57.29
2022-09-28T05:31:14.715Z,57.38
2022-09-28T05:33:45.330Z,57.36
2022-09-28T05:36:13.830Z,57.25
2022-09-28T05:38:44.532Z,57.23
2022-09-28T05:41:12.939Z,57.08
2022-09-28T05:43:40.867Z,57.10
2022-09-28T05:46:08.945Z,57.21
2022-09-28T05:48:38.306Z,57.17
2022-09-28T05:51:06.656Z,57.27
2022-09-28T05:53:34.570Z,57.24
2022-09-28T05:56:04.232Z,57.14
2022-09-28T05:58:32.307Z,57.16
2022-09-28T06:01:00.371Z,56.99
2022-09-28T06:03:28.650Z,57.13
2022-09-28T06:05:56.592Z,57.14
2022-09-28T06:08:24.960Z,57.03
2022-09-28T06:10:53.622Z,57.09
2022-09-28T06:13:22.868Z,57.05
2022-09-28T06:15:52.188Z,56.98
2022-09-28T06:18:20.562Z,56.91
2022-09-28T06:20:48.839Z,56.86
2022-09-28T06:23:16.829Z,57.06
2022-09-28T06:25:45.085Z,57.05
2022-09-28T06:28:14.791Z,57.08
2022-09-28T06:30:45.071Z,57.24
2022-09-28T06:33:15.179Z,56.98
2022-09-28T06:35:43.274Z,56.94
2022-09-28T06:38:11.414Z,57.05
2022-09-28T06:40:39.697Z,57.16
2022-09-28T06:43:10.851Z,57.22
2022-09-28T06:45:52.106Z,57.35
2022-09-28T06:48:20.805Z,57.25
2022-09-28T06:50:50.947Z,57.44
2022-09-28T06:53:20.325Z,57.62
2022-09-28T06:55:49.226Z,57.47
2022-09-28T06:58:20.007Z,57.69
2022-09-28T07:00:52.185Z,57.60
2022-09-28T07:03:22.027Z,57.61
2022-09-28T07:05:52.622Z,57.12
2022-09-28T07:08:22.061Z,57.66
2022-09-28T07:10:56.238Z,57.52
2022-09-28T07:13:47.764Z,57.56
2022-09-28T07:16:15.100Z,57.36
2022-09-28T07:18:43.068Z,57.24
2022-09-28T07:21:21.546Z,57.60
2022-09-28T07:23:55.221Z,57.53
2022-09-28T07:26:26.687Z,57.44
2022-09-28T07:28:55.767Z,57.20
2022-09-28T07:31:26.172Z,57.27
2022-09-28T07:33:56.040Z,57.41
2022-09-28T07:36:24.355Z,57.58
2022-09-28T07:38:53.660Z,57.33
2022-09-28T07:41:32.202Z,57.38
2022-09-28T07:44:05.382Z,57.63
2022-09-28T07:46:35.433Z,57.41
2022-09-28T07:49:08.323Z,57.80
2022-09-28T07:51:39.760Z,57.67
2022-09-28T07:54:10.339Z,57.68
2022-09-28T07:56:38.655Z,57.64
2022-09-28T07:59:06.798Z,57.33
2022-09-28T08:01:38.976Z,57.48
2022-09-28T08:04:07.388Z,57.81
2022-09-28T08:06:35.794Z,57.49
2022-09-28T08:09:04.047Z,57.49
2022-09-28T08:11:33.758Z,57.79
2022-09-28T08:14:02.248Z,57.74
2022-09-28T08:16:34.078Z,57.63
2022-09-28T08:19:05.848Z,57.57
2022-09-28T08:21:45.042Z,57.62
2022-09-28T08:24:13.857Z,57.76
2022-09-28T08:26:43.130Z,57.98
2022-09-28T08:29:12.099Z,58.21
2022-09-28T08:31:40.284Z,58.20
2022-09-28T08:34:10.703Z,58.26
2022-09-28T08:36:39.845Z,58.27
2022-09-28T08:39:09.730Z,58.36
2022-09-28T08:41:46.367Z,58.56
2022-09-28T08:44:23.784Z,59.11
2022-09-28T08:46:57.632Z,58.72
2022-09-28T08:49:34.881Z,58.59
2022-09-28T08:52:10.980Z,59.24
2022-09-28T08:54:45.664Z,59.15
2022-09-28T08:57:17.337Z,58.86
2022-09-28T08:59:51.269Z,58.83
2022-09-28T09:02:25.391Z,59.28
2022-09-28T09:04:57.012Z,59.25
2022-09-28T09:07:51.798Z,59.28
2022-09-28T09:10:50.473Z,59.78
2022-09-28T09:13:45.777Z,59.45
2022-09-28T09:16:30.194Z,59.06
2022-09-28T09:19:07.853Z,58.91
2022-09-28T09:21:49.570Z,58.25
2022-09-28T09:24:29.815Z,59.22
2022-09-28T09:27:06.545Z,58.90
2022-09-28T09:29:57.989Z,58.51
2022-09-28T09:32:48.036Z,57.65
2022-09-28T09:35:31.482Z,58.32
2022-09-28T09:38:22.801Z,58.12
2022-09-28T09:41:03.479Z,58.56
2022-09-28T09:43:53.509Z,59.07
2022-09-28T09:46:29.555Z,58.73
2022-09-28T09:49:05.144Z,57.85
2022-09-28T09:51:42.690Z,57.84
2022-09-28T09:54:20.288Z,58.39
2022-09-28T09:56:54.756Z,58.06
2022-09-28T09:59:33.662Z,58.02
2022-09-28T10:02:03.902Z,58.06
2022-09-28T10:04:38.646Z,57.83
2022-09-28T10:07:15.577Z,57.80
2022-09-28T10:09:47.357Z,57.87
2022-09-28T10:12:20.806Z,57.15
2022-09-28T10:14:49.548Z,56.67
2022-09-28T10:17:20.111Z,56.79
2022-09-28T10:19:52.234Z,56.71
2022-09-28T10:22:27.072Z,56.50
2022-09-28T10:25:00.570Z,56.51
2022-09-28T10:27:32.828Z,56.56
2022-09-28T10:30:03.621Z,56.79
2022-09-28T10:32:38.908Z,56.88
2022-09-28T10:35:24.832Z,56.48
2022-09-28T10:37:59.284Z,56.43
2022-09-28T10:40:46.169Z,56.91
2022-09-28T10:43:22.764Z,56.47
2022-09-28T10:46:01.919Z,56.62
2022-09-28T10:48:36.447Z,56.88
2022-09-28T10:51:07.296Z,57.22
2022-09-28T10:53:38.348Z,57.21
2022-09-28T10:56:20.273Z,56.95
2022-09-28T10:58:48.912Z,57.34
2022-09-28T11:01:21.981Z,56.54
2022-09-28T11:03:54.841Z,56.74
2022-09-28T11:06:27.779Z,56.84
2022-09-28T11:08:58.531Z,56.53
2022-09-28T11:11:29.612Z,56.13
2022-09-28T11:14:01.432Z,56.23
2022-09-28T11:16:31.895Z,56.43
2022-09-28T11:19:05.272Z,56.84
2022-09-28T11:21:42.844Z,56.20
2022-09-28T11:24:20.773Z,57.20
2022-09-28T11:26:53.432Z,56.22
2022-09-28T11:29:26.258Z,55.91
2022-09-28T11:31:54.677Z,55.72
2022-09-28T11:34:41.585Z,56.64
2022-09-28T11:37:28.999Z,56.54
2022-09-28T11:40:08.353Z,55.23
2022-09-28T11:42:44.635Z,55.47
2022-09-28T11:45:31.407Z,54.98
2022-09-28T11:48:04.595Z,53.99
2022-09-28T11:50:43.643Z,54.14
2022-09-28T11:53:23.456Z,53.71
2022-09-28T11:55:58.033Z,52.80
2022-09-28T11:58:32.372Z,53.86
2022-09-28T12:01:07.708Z,53.53
2022-09-28T12:03:42.153Z,53.90
2022-09-28T12:06:16.832Z,53.81
2022-09-28T12:08:53.636Z,53.58
2022-09-28T12:11:29.572Z,53.37
2022-09-28T12:14:04.981Z,52.57
2022-09-28T12:17:04.357Z,53.06
2022-09-28T12:19:33.255Z,52.86
2022-09-28T12:22:05.174Z,52.38
2022-09-28T12:24:39.447Z,53.21
2022-09-28T12:27:15.326Z,53.31
2022-09-28T12:29:49.157Z,52.86
2022-09-28T12:32:28.276Z,52.19
2022-09-28T12:34:57.443Z,52.36
2022-09-28T12:37:40.012Z,52.59
2022-09-28T12:40:29.058Z,52.47
2022-09-28T12:43:12.143Z,49.82
2022-09-28T12:46:11.578Z,49.56
2022-09-28T12:50:01.787Z,49.49
2022-09-28T12:52:13.594Z,49.69
2022-09-28T12:54:57.181Z,51.81
2022-09-28T12:57:40.210Z,52.10
2022-09-28T13:00:13.327Z,51.96
2022-09-28T13:03:07.039Z,52.64
2022-09-28T13:06:17.535Z,52.87
2022-09-28T13:08:57.613Z,52.47
2022-09-28T13:11:34.054Z,53.41
2022-09-28T13:14:24.768Z,53.50
2022-09-28T13:17:00.856Z,53.66
2022-09-28T13:19:40.559Z,53.98
2022-09-28T13:22:22.923Z,54.12
2022-09-28T13:24:52.488Z,54.52
2022-09-28T13:27:30.456Z,54.73
2022-09-28T13:30:02.383Z,55.18
2022-09-28T13:32:33.986Z,54.89
2022-09-28T13:35:03.912Z,54.54
2022-09-28T13:37:32.114Z,54.92
2022-09-28T13:40:05.950Z,54.69
2022-09-28T13:42:59.888Z,55.27
2022-09-28T13:45:38.758Z,54.85
2022-09-28T13:48:16.525Z,55.50
2022-09-28T13:51:05.624Z,55.65
2022-09-28T13:53:51.021Z,55.33
2022-09-28T13:56:30.064Z,54.62
2022-09-28T13:59:02.314Z,55.20
2022-09-28T14:01:36.895Z,55.13
2022-09-28T14:04:17.549Z,55.29
2022-09-28T14:06:54.837Z,54.98
2022-09-28T14:09:43.845Z,55.00
2022-09-28T14:12:47.742Z,54.05
2022-09-28T14:15:45.950Z,54.08
2022-09-28T14:18:23.402Z,54.30
2022-09-28T14:21:03.863Z,54.01
2022-09-28T14:23:54.213Z,54.50
2022-09-28T14:26:58.391Z,54.14
2022-09-28T14:29:29.351Z,53.89
2022-09-28T14:31:59.215Z,54.21
2022-09-28T14:34:34.134Z,53.69
2022-09-28T14:37:22.650Z,52.65
2022-09-28T14:40:10.371Z,53.36
2022-09-28T14:42:38.662Z,52.97
2022-09-28T14:45:22.004Z,53.05
2022-09-28T14:48:12.390Z,52.07
2022-09-28T14:50:40.478Z,52.48
2022-09-28T14:53:13.473Z,53.42
2022-09-28T14:55:52.256Z,53.08
2022-09-28T14:58:23.649Z,52.80
2022-09-28T15:01:00.974Z,53.63
2022-09-28T15:03:32.736Z,53.05
2022-09-28T15:06:01.570Z,53.69
2022-09-28T15:08:40.510Z,53.51
2022-09-28T15:11:15.878Z,53.72
2022-09-28T15:13:44.713Z,53.77
2022-09-28T15:16:15.089Z,53.79
2022-09-28T15:19:02.595Z,53.69
2022-09-28T15:21:36.694Z,54.17
2022-09-28T15:24:24.874Z,54.10
2022-09-28T15:26:54.207Z,54.73
2022-09-28T15:29:23.785Z,54.23
2022-09-28T15:31:54.533Z,54.28
2022-09-28T15:34:48.580Z,54.55
2022-09-28T15:37:18.967Z,54.49
2022-09-28T15:39:48.098Z,54.50
2022-09-28T15:42:18.425Z,54.24
2022-09-28T15:45:26.826Z,54.31
2022-09-28T15:48:18.436Z,54.46
2022-09-28T15:50:59.400Z,54.38
2022-09-28T15:53:28.396Z,54.53
2022-09-28T15:56:03.468Z,54.22
2022-09-28T15:58:32.941Z,54.14
2022-09-28T16:01:29.325Z,54.21
2022-09-28T16:03:57.560Z,54.51
2022-09-28T16:06:25.462Z,54.20
2022-09-28T16:08:53.740Z,54.03
2022-09-28T16:11:26.188Z,54.11
2022-09-28T16:14:05.967Z,54.23
2022-09-28T16:16:41.136Z,54.35
2022-09-28T16:19:24.092Z,54.19
2022-09-28T16:21:55.323Z,54.77
2022-09-28T16:24:25.450Z,54.23
2022-09-28T16:26:59.671Z,54.46
2022-09-28T16:29:39.101Z,54.76
2022-09-28T16:32:35.010Z,54.87
2022-09-28T16:35:18.106Z,55.80
2022-09-28T16:37:48.804Z,55.85
2022-09-28T16:40:17.374Z,55.00
2022-09-28T16:42:49.047Z,55.14
2022-09-28T16:45:23.381Z,55.05
2022-09-28T16:47:52.681Z,55.47
2022-09-28T16:50:21.753Z,55.11
2022-09-28T16:53:09.132Z,55.31
2022-09-28T16:55:40.917Z,55.43
2022-09-28T16:58:09.402Z,55.54
2022-09-28T17:00:38.842Z,55.73
2022-09-28T17:03:14.442Z,55.47
2022-09-28T17:05:43.059Z,56.01
2022-09-28T17:08:15.632Z,55.55
2022-09-28T17:11:13.112Z,55.56
2022-09-28T17:13:37.394Z,55.33
2022-09-28T17:16:11.328Z,55.27
2022-09-28T17:18:39.802Z,55.37
2022-09-28T17:21:13.371Z,55.23
2022-09-28T17:23:41.351Z,55.30
2022-09-28T17:26:18.599Z,55.29
2022-09-28T17:28:47.745Z,55.68
2022-09-28T17:31:18.005Z,55.41
2022-09-28T17:33:46.467Z,55.53
2022-09-28T17:36:16.863Z,55.43
2022-09-28T17:38:47.610Z,55.48
2022-09-28T17:41:20.395Z,55.51
2022-09-28T17:43:49.305Z,55.82
2022-09-28T17:46:27.894Z,56.08
2022-09-28T17:48:59.347Z,56.32
2022-09-28T17:51:30.097Z,56.22
2022-09-28T17:53:58.902Z,56.45
2022-09-28T17:56:31.670Z,56.72
2022-09-28T17:59:03.034Z,57.25
2022-09-28T18:01:34.933Z,57.26
2022-09-28T18:04:04.934Z,57.35
2022-09-28T18:06:33.883Z,57.71
2022-09-28T18:09:04.105Z,57.62
2022-09-28T18:11:35.500Z,57.21
2022-09-28T18:14:07.863Z,57.61
2022-09-28T18:16:40.340Z,57.49
2022-09-28T18:19:08.434Z,57.13
2022-09-28T18:21:36.571Z,56.74
2022-09-28T18:24:06.853Z,56.79
2022-09-28T18:26:35.801Z,57.28
2022-09-28T18:29:03.901Z,57.70
2022-09-28T18:31:32.246Z,57.63
2022-09-28T18:34:02.055Z,57.85
2022-09-28T18:36:30.377Z,57.59
2022-09-28T18:39:00.927Z,57.38
2022-09-28T18:41:29.381Z,57.54
2022-09-28T18:44:00.734Z,58.04
2022-09-28T18:46:30.418Z,57.77
2022-09-28T18:48:58.546Z,58.12
2022-09-28T18:51:27.912Z,57.29
2022-09-28T18:53:56.295Z,57.11
2022-09-28T18:56:24.712Z,56.96
2022-09-28T18:58:52.815Z,57.92
2022-09-28T19:01:30.910Z,57.61
2022-09-28T19:04:01.063Z,57.75
2022-09-28T19:06:31.729Z,57.33
2022-09-28T19:08:59.956Z,56.97
2022-09-28T19:11:28.835Z,56.98
2022-09-28T19:13:57.630Z,57.10
2022-09-28T19:16:28.683Z,56.87
2022-09-28T19:18:57.878Z,56.85
2022-09-28T19:21:27.078Z,56.67
2022-09-28T19:23:56.584Z,56.56
2022-09-28T19:26:27.382Z,56.89
2022-09-28T19:28:57.692Z,56.44
2022-09-28T19:31:26.375Z,56.64
2022-09-28T19:33:54.427Z,57.00
2022-09-28T19:36:25.869Z,57.36
2022-09-28T19:38:54.085Z,57.50
2022-09-28T19:41:45.666Z,57.22
2022-09-28T19:44:19.344Z,57.90
2022-09-28T19:46:47.462Z,57.69
2022-09-28T19:49:19.612Z,57.49
2022-09-28T19:52:11.468Z,57.25
2022-09-28T19:54:37.609Z,57.94
2022-09-28T19:57:07.584Z,57.66
2022-09-28T19:59:36.591Z,57.98
2022-09-28T20:02:05.459Z,57.44
2022-09-28T20:04:33.764Z,57.31
2022-09-28T20:07:01.927Z,57.30
2022-09-28T20:09:30.067Z,57.39
2022-09-28T20:11:58.328Z,57.53
2022-09-28T20:14:32.073Z,57.71
2022-09-28T20:17:01.428Z,57.66
2022-09-28T20:19:29.411Z,57.85
2022-09-28T20:21:58.580Z,57.97
2022-09-28T20:24:28.756Z,58.05
2022-09-28T20:26:56.895Z,57.68
2022-09-28T20:29:25.280Z,57.56
2022-09-28T20:31:54.910Z,57.37
2022-09-28T20:34:22.841Z,57.55
2022-09-28T20:36:50.852Z,57.38
2022-09-28T20:39:19.307Z,57.44
2022-09-28T20:41:49.032Z,57.17
2022-09-28T20:44:17.428Z,57.27
2022-09-28T20:46:45.801Z,57.45
2022-09-28T20:49:15.260Z,57.23
2022-09-28T20:51:43.294Z,57.12
2022-09-28T20:54:11.691Z,57.51
2022-09-28T20:56:39.818Z,57.72
2022-09-28T20:59:11.081Z,57.81
2022-09-28T21:01:39.866Z,57.63
2022-09-28T21:04:10.118Z,57.76
2022-09-28T21:06:40.975Z,57.46
2022-09-28T21:09:10.584Z,57.81
2022-09-28T21:11:39.478Z,57.77
2022-09-28T21:14:09.621Z,57.83
2022-09-28T21:16:38.387Z,57.78
2022-09-28T21:19:06.437Z,57.91
2022-09-28T21:21:34.460Z,57.81
2022-09-28T21:24:04.708Z,58.06
2022-09-28T21:26:33.434Z,58.08
2022-09-28T21:29:03.036Z,57.77
2022-09-28T21:31:33.615Z,57.59
2022-09-28T21:34:01.835Z,57.62
2022-09-28T21:36:29.835Z,57.74
2022-09-28T21:38:58.659Z,57.77
2022-09-28T21:41:29.110Z,57.70
2022-09-28T21:43:57.666Z,57.82
2022-09-28T21:46:26.818Z,57.80
2022-09-28T21:48:55.075Z,57.70
2022-09-28T21:51:23.365Z,57.86
2022-09-28T21:53:51.553Z,57.99
2022-09-28T21:56:19.623Z,57.81
2022-09-28T21:58:50.407Z,57.80
2022-09-28T22:01:20.701Z,57.97
2022-09-28T22:03:51.614Z,58.03
2022-09-28T22:06:21.736Z,57.90
2022-09-28T22:08:51.337Z,58.18
2022-09-28T22:11:21.407Z,58.17
2022-09-28T22:13:52.525Z,58.19
2022-09-28T22:16:22.820Z,58.15
2022-09-28T22:18:51.521Z,58.33
2022-09-28T22:21:21.544Z,58.20
2022-09-28T22:23:50.815Z,58.34
2022-09-28T22:26:20.861Z,58.44
2022-09-28T22:28:51.863Z,58.73
2022-09-28T22:31:23.047Z,58.42
2022-09-28T22:33:51.343Z,58.91
2022-09-28T22:36:19.931Z,58.58
2022-09-28T22:38:48.946Z,58.73
2022-09-28T22:41:20.730Z,58.82
2022-09-28T22:43:49.803Z,59.29
2022-09-28T22:46:20.586Z,59.26
2022-09-28T22:48:50.492Z,59.26
2022-09-28T22:51:18.534Z,59.29
2022-09-28T22:53:46.729Z,59.17
2022-09-28T22:56:18.708Z,59.28
2022-09-28T22:58:47.746Z,58.95
2022-09-28T23:01:18.514Z,59.01
2022-09-28T23:03:48.339Z,58.81
2022-09-28T23:06:18.653Z,58.91
2022-09-28T23:08:47.710Z,58.77
2022-09-28T23:11:16.650Z,58.95
2022-09-28T23:13:49.760Z,59.33
2022-09-28T23:16:17.899Z,59.89
2022-09-28T23:18:49.165Z,59.36
2022-09-28T23:21:18.774Z,59.00
2022-09-28T23:23:52.114Z,59.11
2022-09-28T23:26:21.886Z,58.69
2022-09-28T23:28:50.609Z,58.69
2022-09-28T23:31:20.532Z,58.66
2022-09-28T23:33:50.341Z,58.63
2022-09-28T23:36:19.318Z,58.69
2022-09-28T23:38:47.394Z,58.52
2022-09-28T23:41:15.484Z,58.66
2022-09-28T23:43:43.796Z,58.56
2022-09-28T23:46:12.475Z,58.53
2022-09-28T23:48:40.518Z,58.79
2022-09-28T23:51:10.148Z,58.92
2022-09-28T23:53:38.212Z,58.83
2022-09-28T23:56:06.899Z,58.78
2022-09-28T23:58:35.292Z,58.94
